sensor_id;sensor_type;location;lat;lon;timestamp;temperature;humidity
59893;DHT22;45758;51.052;3.740;2022-10-16T00:01:08;14.90;99.90
59893;DHT22;45758;51.052;3.740;2022-10-16T00:03:35;15.00;99.90
59893;DHT22;45758;51.052;3.740;2022-10-16T00:06:01;15.00;99.90
59893;DHT22;45758;51.052;3.740;2022-10-16T00:08:29;14.90;99.90
59893;DHT22;45758;51.052;3.740;2022-10-16T00:11:00;14.80;99.90
59893;DHT22;45758;51.052;3.740;2022-10-16T00:13:26;14.70;99.90
59893;DHT22;45758;51.052;3.740;2022-10-16T00:15:55;14.70;99.90
59893;DHT22;45758;51.052;3.740;2022-10-16T00:18:24;14.70;99.90
59893;DHT22;45758;51.052;3.740;2022-10-16T00:20:50;14.70;99.90
59893;DHT22;45758;51.052;3.740;2022-10-16T00:23:16;14.70;99.90
59893;DHT22;45758;51.052;3.740;2022-10-16T00:25:42;14.60;99.90
59893;DHT22;45758;51.052;3.740;2022-10-16T00:28:08;14.60;99.90
59893;DHT22;45758;51.052;3.740;2022-10-16T00:30:33;14.60;99.90
59893;DHT22;45758;51.052;3.740;2022-10-16T00:33:02;14.50;99.90
59893;DHT22;45758;51.052;3.740;2022-10-16T00:35:30;14.40;99.90
59893;DHT22;45758;51.052;3.740;2022-10-16T00:37:56;14.40;99.90
59893;DHT22;45758;51.052;3.740;2022-10-16T00:40:22;14.40;99.90
59893;DHT22;45758;51.052;3.740;2022-10-16T00:42:48;14.50;99.90
59893;DHT22;45758;51.052;3.740;2022-10-16T00:45:14;14.40;99.90
59893;DHT22;45758;51.052;3.740;2022-10-16T00:47:43;14.40;99.90
59893;DHT22;45758;51.052;3.740;2022-10-16T00:50:34;14.30;99.90
59893;DHT22;45758;51.052;3.740;2022-10-16T00:53:01;14.20;99.90
59893;DHT22;45758;51.052;3.740;2022-10-16T00:55:28;14.20;99.90
59893;DHT22;45758;51.052;3.740;2022-10-16T00:57:56;14.10;99.90
59893;DHT22;45758;51.052;3.740;2022-10-16T01:00:25;14.20;99.90
59893;DHT22;45758;51.052;3.740;2022-10-16T01:02:58;14.30;99.90
59893;DHT22;45758;51.052;3.740;2022-10-16T01:05:33;14.40;99.90
59893;DHT22;45758;51.052;3.740;2022-10-16T01:08:13;14.20;99.90
59893;DHT22;45758;51.052;3.740;2022-10-16T01:10:47;14.30;99.90
59893;DHT22;45758;51.052;3.740;2022-10-16T01:13:21;14.30;99.90
59893;DHT22;45758;51.052;3.740;2022-10-16T01:16:05;14.40;99.90
59893;DHT22;45758;51.052;3.740;2022-10-16T01:18:43;14.50;99.90
59893;DHT22;45758;51.052;3.740;2022-10-16T01:21:26;14.40;99.90
59893;DHT22;45758;51.052;3.740;2022-10-16T01:24:48;14.30;99.90
59893;DHT22;45758;51.052;3.740;2022-10-16T01:27:13;14.30;99.90
59893;DHT22;45758;51.052;3.740;2022-10-16T01:32:38;14.20;99.90
59893;DHT22;45758;51.052;3.740;2022-10-16T01:35:21;14.30;99.90
59893;DHT22;45758;51.052;3.740;2022-10-16T01:40:34;14.30;99.90
59893;DHT22;45758;51.052;3.740;2022-10-16T01:43:31;14.30;99.90
59893;DHT22;45758;51.052;3.740;2022-10-16T01:46:00;14.30;99.90
59893;DHT22;45758;51.052;3.740;2022-10-16T01:48:26;14.30;99.90
59893;DHT22;45758;51.052;3.740;2022-10-16T01:51:06;14.30;99.90
59893;DHT22;45758;51.052;3.740;2022-10-16T01:53:33;14.10;99.90
59893;DHT22;45758;51.052;3.740;2022-10-16T01:56:00;14.10;99.90
59893;DHT22;45758;51.052;3.740;2022-10-16T01:58:29;14.10;99.90
59893;DHT22;45758;51.052;3.740;2022-10-16T02:01:00;14.20;99.90
59893;DHT22;45758;51.052;3.740;2022-10-16T02:03:27;14.20;99.90
59893;DHT22;45758;51.052;3.740;2022-10-16T02:05:55;14.20;99.90
59893;DHT22;45758;51.052;3.740;2022-10-16T02:08:24;14.30;99.90
59893;DHT22;45758;51.052;3.740;2022-10-16T02:10:51;14.30;99.90
59893;DHT22;45758;51.052;3.740;2022-10-16T02:13:22;14.30;99.90
59893;DHT22;45758;51.052;3.740;2022-10-16T02:15:49;14.30;99.90
59893;DHT22;45758;51.052;3.740;2022-10-16T02:18:15;14.30;99.90
59893;DHT22;45758;51.052;3.740;2022-10-16T02:20:57;14.20;99.90
59893;DHT22;45758;51.052;3.740;2022-10-16T02:25:59;14.10;99.90
59893;DHT22;45758;51.052;3.740;2022-10-16T02:28:38;14.10;99.90
59893;DHT22;45758;51.052;3.740;2022-10-16T02:31:10;14.20;99.90
59893;DHT22;45758;51.052;3.740;2022-10-16T02:33:38;14.20;99.90
59893;DHT22;45758;51.052;3.740;2022-10-16T02:36:06;14.30;99.90
59893;DHT22;45758;51.052;3.740;2022-10-16T02:38:32;14.30;99.90
59893;DHT22;45758;51.052;3.740;2022-10-16T02:40:58;14.20;99.90
59893;DHT22;45758;51.052;3.740;2022-10-16T02:43:25;14.20;99.90
59893;DHT22;45758;51.052;3.740;2022-10-16T02:45:51;14.10;99.90
59893;DHT22;45758;51.052;3.740;2022-10-16T02:48:17;14.20;99.90
59893;DHT22;45758;51.052;3.740;2022-10-16T02:50:43;14.30;99.90
59893;DHT22;45758;51.052;3.740;2022-10-16T02:53:09;14.30;99.90
59893;DHT22;45758;51.052;3.740;2022-10-16T02:55:35;14.20;99.90
59893;DHT22;45758;51.052;3.740;2022-10-16T02:58:01;14.30;99.90
59893;DHT22;45758;51.052;3.740;2022-10-16T03:00:27;14.20;99.90
59893;DHT22;45758;51.052;3.740;2022-10-16T03:02:53;14.20;99.90
59893;DHT22;45758;51.052;3.740;2022-10-16T03:05:19;14.10;99.90
59893;DHT22;45758;51.052;3.740;2022-10-16T03:07:45;14.10;99.90
59893;DHT22;45758;51.052;3.740;2022-10-16T03:10:11;14.00;99.90
59893;DHT22;45758;51.052;3.740;2022-10-16T03:12:37;14.10;99.90
59893;DHT22;45758;51.052;3.740;2022-10-16T03:15:04;14.20;99.90
59893;DHT22;45758;51.052;3.740;2022-10-16T03:17:31;14.20;99.90
59893;DHT22;45758;51.052;3.740;2022-10-16T03:19:57;14.20;99.90
59893;DHT22;45758;51.052;3.740;2022-10-16T03:22:23;14.20;99.90
59893;DHT22;45758;51.052;3.740;2022-10-16T03:24:49;14.20;99.90
59893;DHT22;45758;51.052;3.740;2022-10-16T03:27:15;14.10;99.90
59893;DHT22;45758;51.052;3.740;2022-10-16T03:29:41;14.10;99.90
59893;DHT22;45758;51.052;3.740;2022-10-16T03:32:06;14.10;99.90
59893;DHT22;45758;51.052;3.740;2022-10-16T03:34:32;14.10;99.90
59893;DHT22;45758;51.052;3.740;2022-10-16T03:36:58;14.10;99.90
59893;DHT22;45758;51.052;3.740;2022-10-16T03:39:24;14.00;99.90
59893;DHT22;45758;51.052;3.740;2022-10-16T03:41:50;14.00;99.90
59893;DHT22;45758;51.052;3.740;2022-10-16T03:44:16;14.00;99.90
59893;DHT22;45758;51.052;3.740;2022-10-16T03:46:42;14.00;99.90
59893;DHT22;45758;51.052;3.740;2022-10-16T03:49:08;14.10;99.90
59893;DHT22;45758;51.052;3.740;2022-10-16T03:51:34;14.00;99.90
59893;DHT22;45758;51.052;3.740;2022-10-16T03:53:59;14.00;99.90
59893;DHT22;45758;51.052;3.740;2022-10-16T03:56:26;14.00;99.90
59893;DHT22;45758;51.052;3.740;2022-10-16T03:58:51;14.00;99.90
59893;DHT22;45758;51.052;3.740;2022-10-16T04:01:17;13.90;99.90
59893;DHT22;45758;51.052;3.740;2022-10-16T04:03:43;13.90;99.90
59893;DHT22;45758;51.052;3.740;2022-10-16T04:06:09;13.90;99.90
59893;DHT22;45758;51.052;3.740;2022-10-16T04:08:35;13.90;99.90
59893;DHT22;45758;51.052;3.740;2022-10-16T04:11:02;13.80;99.90
59893;DHT22;45758;51.052;3.740;2022-10-16T04:13:29;13.70;99.90
59893;DHT22;45758;51.052;3.740;2022-10-16T04:15:54;13.80;99.90
59893;DHT22;45758;51.052;3.740;2022-10-16T04:18:20;13.80;99.90
59893;DHT22;45758;51.052;3.740;2022-10-16T04:20:46;13.80;99.90
59893;DHT22;45758;51.052;3.740;2022-10-16T04:23:12;13.70;99.90
59893;DHT22;45758;51.052;3.740;2022-10-16T04:25:38;13.60;99.90
59893;DHT22;45758;51.052;3.740;2022-10-16T04:28:04;13.70;99.90
59893;DHT22;45758;51.052;3.740;2022-10-16T04:30:30;13.70;99.90
59893;DHT22;45758;51.052;3.740;2022-10-16T04:32:56;13.90;99.90
59893;DHT22;45758;51.052;3.740;2022-10-16T04:35:22;13.90;99.90
59893;DHT22;45758;51.052;3.740;2022-10-16T04:37:48;13.80;99.90
59893;DHT22;45758;51.052;3.740;2022-10-16T04:40:14;13.70;99.90
59893;DHT22;45758;51.052;3.740;2022-10-16T04:42:40;13.70;99.90
59893;DHT22;45758;51.052;3.740;2022-10-16T04:45:06;13.80;99.90
59893;DHT22;45758;51.052;3.740;2022-10-16T04:47:33;13.80;99.90
59893;DHT22;45758;51.052;3.740;2022-10-16T04:49:59;13.80;99.90
59893;DHT22;45758;51.052;3.740;2022-10-16T04:52:26;13.80;99.90
59893;DHT22;45758;51.052;3.740;2022-10-16T04:54:52;13.70;99.90
59893;DHT22;45758;51.052;3.740;2022-10-16T04:57:19;13.70;99.90
59893;DHT22;45758;51.052;3.740;2022-10-16T04:59:45;13.60;99.90
59893;DHT22;45758;51.052;3.740;2022-10-16T05:02:11;13.60;99.90
59893;DHT22;45758;51.052;3.740;2022-10-16T05:04:37;13.60;99.90
59893;DHT22;45758;51.052;3.740;2022-10-16T05:07:03;13.60;99.90
59893;DHT22;45758;51.052;3.740;2022-10-16T05:09:28;13.70;99.90
59893;DHT22;45758;51.052;3.740;2022-10-16T05:11:54;13.70;99.90
59893;DHT22;45758;51.052;3.740;2022-10-16T05:14:20;13.60;99.90
59893;DHT22;45758;51.052;3.740;2022-10-16T05:16:46;13.60;99.90
59893;DHT22;45758;51.052;3.740;2022-10-16T05:19:13;13.70;99.90
59893;DHT22;45758;51.052;3.740;2022-10-16T05:21:39;13.80;99.90
59893;DHT22;45758;51.052;3.740;2022-10-16T05:24:05;13.80;99.90
59893;DHT22;45758;51.052;3.740;2022-10-16T05:26:31;14.00;99.90
59893;DHT22;45758;51.052;3.740;2022-10-16T05:28:57;14.10;99.90
59893;DHT22;45758;51.052;3.740;2022-10-16T05:31:23;14.10;99.90
59893;DHT22;45758;51.052;3.740;2022-10-16T05:33:48;14.20;99.90
59893;DHT22;45758;51.052;3.740;2022-10-16T05:36:14;14.20;99.90
59893;DHT22;45758;51.052;3.740;2022-10-16T05:38:40;14.10;99.90
59893;DHT22;45758;51.052;3.740;2022-10-16T05:41:06;14.10;99.90
59893;DHT22;45758;51.052;3.740;2022-10-16T05:43:32;14.10;99.90
59893;DHT22;45758;51.052;3.740;2022-10-16T05:46:02;14.20;99.90
59893;DHT22;45758;51.052;3.740;2022-10-16T05:48:29;14.10;99.90
59893;DHT22;45758;51.052;3.740;2022-10-16T05:51:04;14.20;99.90
59893;DHT22;45758;51.052;3.740;2022-10-16T05:53:34;14.20;99.90
59893;DHT22;45758;51.052;3.740;2022-10-16T05:56:01;14.10;99.90
59893;DHT22;45758;51.052;3.740;2022-10-16T05:58:32;14.10;99.90
59893;DHT22;45758;51.052;3.740;2022-10-16T06:01:07;14.00;99.90
59893;DHT22;45758;51.052;3.740;2022-10-16T06:03:34;14.00;99.90
59893;DHT22;45758;51.052;3.740;2022-10-16T06:06:11;13.90;99.90
59893;DHT22;45758;51.052;3.740;2022-10-16T06:08:38;13.90;99.90
59893;DHT22;45758;51.052;3.740;2022-10-16T06:11:12;13.80;99.90
59893;DHT22;45758;51.052;3.740;2022-10-16T06:13:39;13.80;99.90
59893;DHT22;45758;51.052;3.740;2022-10-16T06:16:07;13.80;99.90
59893;DHT22;45758;51.052;3.740;2022-10-16T06:18:33;13.80;99.90
59893;DHT22;45758;51.052;3.740;2022-10-16T06:20:59;13.80;99.90
59893;DHT22;45758;51.052;3.740;2022-10-16T06:23:28;13.70;99.90
59893;DHT22;45758;51.052;3.740;2022-10-16T06:25:54;13.80;99.90
59893;DHT22;45758;51.052;3.740;2022-10-16T06:28:22;13.90;99.90
59893;DHT22;45758;51.052;3.740;2022-10-16T06:30:48;13.90;99.90
59893;DHT22;45758;51.052;3.740;2022-10-16T06:33:14;13.80;99.90
59893;DHT22;45758;51.052;3.740;2022-10-16T06:35:40;13.80;99.90
59893;DHT22;45758;51.052;3.740;2022-10-16T06:38:06;13.90;99.90
59893;DHT22;45758;51.052;3.740;2022-10-16T06:40:32;14.00;99.90
59893;DHT22;45758;51.052;3.740;2022-10-16T06:42:59;14.00;99.90
59893;DHT22;45758;51.052;3.740;2022-10-16T06:45:25;14.00;99.90
59893;DHT22;45758;51.052;3.740;2022-10-16T06:47:51;13.90;99.90
59893;DHT22;45758;51.052;3.740;2022-10-16T06:50:17;13.90;99.90
59893;DHT22;45758;51.052;3.740;2022-10-16T06:52:46;13.90;99.90
59893;DHT22;45758;51.052;3.740;2022-10-16T06:55:12;13.90;99.90
59893;DHT22;45758;51.052;3.740;2022-10-16T06:57:37;14.00;99.90
59893;DHT22;45758;51.052;3.740;2022-10-16T07:00:04;14.00;99.90
59893;DHT22;45758;51.052;3.740;2022-10-16T07:02:30;14.10;99.90
59893;DHT22;45758;51.052;3.740;2022-10-16T07:04:56;14.20;99.90
59893;DHT22;45758;51.052;3.740;2022-10-16T07:07:22;14.20;99.90
59893;DHT22;45758;51.052;3.740;2022-10-16T07:09:50;14.20;99.90
59893;DHT22;45758;51.052;3.740;2022-10-16T07:12:16;14.10;99.90
59893;DHT22;45758;51.052;3.740;2022-10-16T07:14:42;14.10;99.90
59893;DHT22;45758;51.052;3.740;2022-10-16T07:17:08;14.20;99.90
59893;DHT22;45758;51.052;3.740;2022-10-16T07:19:36;14.30;99.90
59893;DHT22;45758;51.052;3.740;2022-10-16T07:22:02;14.20;99.90
59893;DHT22;45758;51.052;3.740;2022-10-16T07:24:31;14.10;99.90
59893;DHT22;45758;51.052;3.740;2022-10-16T07:27:04;14.10;99.90
59893;DHT22;45758;51.052;3.740;2022-10-16T07:29:33;14.10;99.90
59893;DHT22;45758;51.052;3.740;2022-10-16T07:32:08;14.10;99.90
59893;DHT22;45758;51.052;3.740;2022-10-16T07:34:34;14.20;99.90
59893;DHT22;45758;51.052;3.740;2022-10-16T07:37:02;14.20;99.90
59893;DHT22;45758;51.052;3.740;2022-10-16T07:39:28;14.30;99.90
59893;DHT22;45758;51.052;3.740;2022-10-16T07:41:54;14.30;99.90
59893;DHT22;45758;51.052;3.740;2022-10-16T07:44:20;14.40;99.90
59893;DHT22;45758;51.052;3.740;2022-10-16T07:46:46;14.60;99.90
59893;DHT22;45758;51.052;3.740;2022-10-16T07:49:12;14.70;99.90
59893;DHT22;45758;51.052;3.740;2022-10-16T07:51:38;14.90;99.90
59893;DHT22;45758;51.052;3.740;2022-10-16T07:54:04;14.90;99.90
59893;DHT22;45758;51.052;3.740;2022-10-16T07:56:31;14.90;99.90
59893;DHT22;45758;51.052;3.740;2022-10-16T07:58:58;14.90;99.90
59893;DHT22;45758;51.052;3.740;2022-10-16T08:01:24;15.10;99.90
59893;DHT22;45758;51.052;3.740;2022-10-16T08:03:51;15.20;99.90
59893;DHT22;45758;51.052;3.740;2022-10-16T08:06:18;15.30;99.90
59893;DHT22;45758;51.052;3.740;2022-10-16T08:08:44;15.40;99.90
59893;DHT22;45758;51.052;3.740;2022-10-16T08:11:10;15.50;99.90
59893;DHT22;45758;51.052;3.740;2022-10-16T08:13:36;15.60;99.90
59893;DHT22;45758;51.052;3.740;2022-10-16T08:16:03;15.80;99.90
59893;DHT22;45758;51.052;3.740;2022-10-16T08:18:34;15.80;99.90
59893;DHT22;45758;51.052;3.740;2022-10-16T08:21:01;15.90;99.90
59893;DHT22;45758;51.052;3.740;2022-10-16T08:23:28;16.10;99.90
59893;DHT22;45758;51.052;3.740;2022-10-16T08:25:55;16.30;99.90
59893;DHT22;45758;51.052;3.740;2022-10-16T08:28:22;16.50;99.90
59893;DHT22;45758;51.052;3.740;2022-10-16T08:30:48;16.60;99.90
59893;DHT22;45758;51.052;3.740;2022-10-16T08:33:14;16.80;99.90
59893;DHT22;45758;51.052;3.740;2022-10-16T08:35:40;16.90;99.90
59893;DHT22;45758;51.052;3.740;2022-10-16T08:38:09;16.90;99.90
59893;DHT22;45758;51.052;3.740;2022-10-16T08:40:37;16.90;99.90
59893;DHT22;45758;51.052;3.740;2022-10-16T08:46:16;17.20;99.90
59893;DHT22;45758;51.052;3.740;2022-10-16T08:48:49;17.50;99.90
59893;DHT22;45758;51.052;3.740;2022-10-16T08:51:27;17.70;99.90
59893;DHT22;45758;51.052;3.740;2022-10-16T08:53:59;17.80;99.90
59893;DHT22;45758;51.052;3.740;2022-10-16T08:56:27;17.80;99.90
59893;DHT22;45758;51.052;3.740;2022-10-16T08:58:54;17.90;99.90
59893;DHT22;45758;51.052;3.740;2022-10-16T09:01:22;17.80;99.90
59893;DHT22;45758;51.052;3.740;2022-10-16T09:04:41;18.00;99.90
59893;DHT22;45758;51.052;3.740;2022-10-16T09:07:34;17.80;99.90
59893;DHT22;45758;51.052;3.740;2022-10-16T09:10:15;17.70;99.90
59893;DHT22;45758;51.052;3.740;2022-10-16T09:15:37;17.90;99.90
59893;DHT22;45758;51.052;3.740;2022-10-16T09:21:26;18.30;99.90
59893;DHT22;45758;51.052;3.740;2022-10-16T09:23:54;18.50;99.90
59893;DHT22;45758;51.052;3.740;2022-10-16T09:26:23;18.70;99.90
59893;DHT22;45758;51.052;3.740;2022-10-16T09:28:49;18.80;99.90
59893;DHT22;45758;51.052;3.740;2022-10-16T09:31:19;19.00;99.90
59893;DHT22;45758;51.052;3.740;2022-10-16T09:33:57;19.10;99.90
59893;DHT22;45758;51.052;3.740;2022-10-16T09:36:25;19.40;99.90
59893;DHT22;45758;51.052;3.740;2022-10-16T09:39:07;19.50;99.90
59893;DHT22;45758;51.052;3.740;2022-10-16T09:41:39;19.50;99.90
59893;DHT22;45758;51.052;3.740;2022-10-16T09:44:19;19.60;99.90
59893;DHT22;45758;51.052;3.740;2022-10-16T09:46:46;19.80;99.90
59893;DHT22;45758;51.052;3.740;2022-10-16T09:49:22;20.00;99.90
59893;DHT22;45758;51.052;3.740;2022-10-16T09:51:49;20.10;99.90
59893;DHT22;45758;51.052;3.740;2022-10-16T09:54:20;20.10;99.90
59893;DHT22;45758;51.052;3.740;2022-10-16T09:56:47;20.30;99.90
59893;DHT22;45758;51.052;3.740;2022-10-16T09:59:23;20.20;99.90
59893;DHT22;45758;51.052;3.740;2022-10-16T10:01:55;20.10;99.90
59893;DHT22;45758;51.052;3.740;2022-10-16T10:04:25;20.00;99.90
59893;DHT22;45758;51.052;3.740;2022-10-16T10:06:55;20.20;99.90
59893;DHT22;45758;51.052;3.740;2022-10-16T10:09:36;20.20;99.90
59893;DHT22;45758;51.052;3.740;2022-10-16T10:12:04;20.10;99.90
59893;DHT22;45758;51.052;3.740;2022-10-16T10:14:34;20.20;99.90
59893;DHT22;45758;51.052;3.740;2022-10-16T10:19:54;20.60;99.90
59893;DHT22;45758;51.052;3.740;2022-10-16T10:22:42;20.60;99.90
59893;DHT22;45758;51.052;3.740;2022-10-16T10:33:41;20.70;99.90
59893;DHT22;45758;51.052;3.740;2022-10-16T10:36:22;20.70;99.90
59893;DHT22;45758;51.052;3.740;2022-10-16T10:39:15;20.70;99.90
59893;DHT22;45758;51.052;3.740;2022-10-16T10:50:25;21.50;99.90
59893;DHT22;45758;51.052;3.740;2022-10-16T10:55:38;21.70;99.90
59893;DHT22;45758;51.052;3.740;2022-10-16T11:01:06;21.70;99.90
59893;DHT22;45758;51.052;3.740;2022-10-16T11:06:33;21.60;99.90
59893;DHT22;45758;51.052;3.740;2022-10-16T11:12:01;21.40;99.90
59893;DHT22;45758;51.052;3.740;2022-10-16T11:14:55;21.30;99.90
59893;DHT22;45758;51.052;3.740;2022-10-16T11:17:35;21.10;99.90
59893;DHT22;45758;51.052;3.740;2022-10-16T11:22:52;21.40;99.90
59893;DHT22;45758;51.052;3.740;2022-10-16T11:25:26;21.30;99.90
59893;DHT22;45758;51.052;3.740;2022-10-16T11:28:14;21.50;99.90
59893;DHT22;45758;51.052;3.740;2022-10-16T11:30:51;21.60;99.90
59893;DHT22;45758;51.052;3.740;2022-10-16T11:33:30;22.00;99.90
59893;DHT22;45758;51.052;3.740;2022-10-16T11:39:10;22.70;99.90
59893;DHT22;45758;51.052;3.740;2022-10-16T11:41:47;22.80;99.90
59893;DHT22;45758;51.052;3.740;2022-10-16T11:44:25;22.70;99.90
59893;DHT22;45758;51.052;3.740;2022-10-16T11:47:06;22.50;99.90
59893;DHT22;45758;51.052;3.740;2022-10-16T11:49:36;22.40;99.90
59893;DHT22;45758;51.052;3.740;2022-10-16T11:52:06;22.10;99.90
59893;DHT22;45758;51.052;3.740;2022-10-16T11:55:13;21.70;99.90
59893;DHT22;45758;51.052;3.740;2022-10-16T11:57:39;21.60;99.90
59893;DHT22;45758;51.052;3.740;2022-10-16T12:08:28;21.60;99.90
59893;DHT22;45758;51.052;3.740;2022-10-16T12:11:07;21.40;99.90
59893;DHT22;45758;51.052;3.740;2022-10-16T12:13:36;21.30;99.90
59893;DHT22;45758;51.052;3.740;2022-10-16T12:18:44;21.20;99.90
59893;DHT22;45758;51.052;3.740;2022-10-16T12:21:12;21.30;99.90
59893;DHT22;45758;51.052;3.740;2022-10-16T12:23:56;21.30;99.90
59893;DHT22;45758;51.052;3.740;2022-10-16T12:26:28;21.20;99.90
59893;DHT22;45758;51.052;3.740;2022-10-16T12:28:56;21.20;99.90
59893;DHT22;45758;51.052;3.740;2022-10-16T12:31:23;21.30;99.90
59893;DHT22;45758;51.052;3.740;2022-10-16T12:34:29;21.20;99.90
59893;DHT22;45758;51.052;3.740;2022-10-16T12:36:56;21.20;99.90
59893;DHT22;45758;51.052;3.740;2022-10-16T12:39:33;21.20;99.90
59893;DHT22;45758;51.052;3.740;2022-10-16T12:42:04;21.00;99.90
59893;DHT22;45758;51.052;3.740;2022-10-16T12:44:35;20.70;99.90
59893;DHT22;45758;51.052;3.740;2022-10-16T12:47:01;20.50;99.90
59893;DHT22;45758;51.052;3.740;2022-10-16T12:51:53;20.70;99.90
59893;DHT22;45758;51.052;3.740;2022-10-16T12:54:31;20.80;99.90
59893;DHT22;45758;51.052;3.740;2022-10-16T12:59:53;21.10;99.90
59893;DHT22;45758;51.052;3.740;2022-10-16T13:02:45;21.20;99.90
59893;DHT22;45758;51.052;3.740;2022-10-16T13:10:39;21.20;99.90
59893;DHT22;45758;51.052;3.740;2022-10-16T13:16:02;21.40;99.90
59893;DHT22;45758;51.052;3.740;2022-10-16T13:18:45;21.20;99.90
59893;DHT22;45758;51.052;3.740;2022-10-16T13:30:00;20.70;99.90
59893;DHT22;45758;51.052;3.740;2022-10-16T13:32:27;20.70;99.90
59893;DHT22;45758;51.052;3.740;2022-10-16T13:34:53;20.90;99.90
59893;DHT22;45758;51.052;3.740;2022-10-16T13:37:21;21.00;99.90
59893;DHT22;45758;51.052;3.740;2022-10-16T13:39:48;21.20;99.90
59893;DHT22;45758;51.052;3.740;2022-10-16T13:42:27;21.30;99.90
59893;DHT22;45758;51.052;3.740;2022-10-16T13:44:54;21.50;99.90
59893;DHT22;45758;51.052;3.740;2022-10-16T13:47:28;21.70;99.90
59893;DHT22;45758;51.052;3.740;2022-10-16T13:50:19;21.70;99.90
59893;DHT22;45758;51.052;3.740;2022-10-16T13:52:45;21.70;99.90
59893;DHT22;45758;51.052;3.740;2022-10-16T13:55:12;21.60;99.90
59893;DHT22;45758;51.052;3.740;2022-10-16T13:57:38;21.50;99.90
59893;DHT22;45758;51.052;3.740;2022-10-16T14:00:18;21.40;99.90
59893;DHT22;45758;51.052;3.740;2022-10-16T14:02:44;21.20;99.90
59893;DHT22;45758;51.052;3.740;2022-10-16T14:05:10;21.10;99.90
59893;DHT22;45758;51.052;3.740;2022-10-16T14:07:36;21.10;99.90
59893;DHT22;45758;51.052;3.740;2022-10-16T14:10:06;21.10;99.90
59893;DHT22;45758;51.052;3.740;2022-10-16T14:12:32;21.30;99.90
59893;DHT22;45758;51.052;3.740;2022-10-16T14:14:59;21.30;99.90
59893;DHT22;45758;51.052;3.740;2022-10-16T14:17:33;21.30;99.90
59893;DHT22;45758;51.052;3.740;2022-10-16T14:20:03;21.20;99.90
59893;DHT22;45758;51.052;3.740;2022-10-16T14:22:41;21.30;99.90
59893;DHT22;45758;51.052;3.740;2022-10-16T14:25:20;21.10;99.90
59893;DHT22;45758;51.052;3.740;2022-10-16T14:30:30;21.00;99.90
59893;DHT22;45758;51.052;3.740;2022-10-16T14:33:03;21.00;99.90
59893;DHT22;45758;51.052;3.740;2022-10-16T14:36:03;21.00;99.90
59893;DHT22;45758;51.052;3.740;2022-10-16T14:38:29;20.90;99.90
59893;DHT22;45758;51.052;3.740;2022-10-16T14:40:57;20.90;99.90
59893;DHT22;45758;51.052;3.740;2022-10-16T14:43:36;20.80;99.90
59893;DHT22;45758;51.052;3.740;2022-10-16T14:46:12;20.70;99.90
59893;DHT22;45758;51.052;3.740;2022-10-16T14:48:46;20.70;99.90
59893;DHT22;45758;51.052;3.740;2022-10-16T14:51:17;20.70;99.90
59893;DHT22;45758;51.052;3.740;2022-10-16T14:53:44;20.50;99.90
59893;DHT22;45758;51.052;3.740;2022-10-16T14:56:21;20.40;99.90
59893;DHT22;45758;51.052;3.740;2022-10-16T14:58:52;20.40;99.90
59893;DHT22;45758;51.052;3.740;2022-10-16T15:01:19;20.40;99.90
59893;DHT22;45758;51.052;3.740;2022-10-16T15:03:45;20.40;99.90
59893;DHT22;45758;51.052;3.740;2022-10-16T15:06:13;20.30;99.90
59893;DHT22;45758;51.052;3.740;2022-10-16T15:08:39;20.30;99.90
59893;DHT22;45758;51.052;3.740;2022-10-16T15:11:12;20.20;99.90
59893;DHT22;45758;51.052;3.740;2022-10-16T15:13:39;20.20;99.90
59893;DHT22;45758;51.052;3.740;2022-10-16T15:16:11;20.20;99.90
59893;DHT22;45758;51.052;3.740;2022-10-16T15:18:37;20.20;99.90
59893;DHT22;45758;51.052;3.740;2022-10-16T15:21:03;20.10;99.90
59893;DHT22;45758;51.052;3.740;2022-10-16T15:23:29;20.10;99.90
59893;DHT22;45758;51.052;3.740;2022-10-16T15:25:55;20.00;99.90
59893;DHT22;45758;51.052;3.740;2022-10-16T15:28:23;19.90;99.90
59893;DHT22;45758;51.052;3.740;2022-10-16T15:30:50;19.80;99.90
59893;DHT22;45758;51.052;3.740;2022-10-16T15:33:20;19.70;99.90
59893;DHT22;45758;51.052;3.740;2022-10-16T15:35:47;19.80;99.90
59893;DHT22;45758;51.052;3.740;2022-10-16T15:38:14;19.80;99.90
59893;DHT22;45758;51.052;3.740;2022-10-16T15:40:41;19.70;99.90
59893;DHT22;45758;51.052;3.740;2022-10-16T15:43:07;19.60;99.90
59893;DHT22;45758;51.052;3.740;2022-10-16T15:45:33;19.60;99.90
59893;DHT22;45758;51.052;3.740;2022-10-16T15:47:59;19.50;99.90
59893;DHT22;45758;51.052;3.740;2022-10-16T15:50:26;19.50;99.90
59893;DHT22;45758;51.052;3.740;2022-10-16T15:52:52;19.60;99.90
59893;DHT22;45758;51.052;3.740;2022-10-16T15:55:18;19.60;99.90
59893;DHT22;45758;51.052;3.740;2022-10-16T15:57:45;19.50;99.90
59893;DHT22;45758;51.052;3.740;2022-10-16T16:00:18;19.60;99.90
59893;DHT22;45758;51.052;3.740;2022-10-16T16:02:52;19.50;99.90
59893;DHT22;45758;51.052;3.740;2022-10-16T16:05:20;19.30;99.90
59893;DHT22;45758;51.052;3.740;2022-10-16T16:07:46;19.30;99.90
59893;DHT22;45758;51.052;3.740;2022-10-16T16:10:14;19.30;99.90
59893;DHT22;45758;51.052;3.740;2022-10-16T16:12:40;19.30;99.90
59893;DHT22;45758;51.052;3.740;2022-10-16T16:15:07;19.20;99.90
59893;DHT22;45758;51.052;3.740;2022-10-16T16:17:34;19.10;99.90
59893;DHT22;45758;51.052;3.740;2022-10-16T16:20:00;19.10;99.90
59893;DHT22;45758;51.052;3.740;2022-10-16T16:22:27;19.10;99.90
59893;DHT22;45758;51.052;3.740;2022-10-16T16:24:53;19.10;99.90
59893;DHT22;45758;51.052;3.740;2022-10-16T16:27:19;19.10;99.90
59893;DHT22;45758;51.052;3.740;2022-10-16T16:29:46;19.00;99.90
59893;DHT22;45758;51.052;3.740;2022-10-16T16:32:12;18.90;99.90
59893;DHT22;45758;51.052;3.740;2022-10-16T16:34:38;19.00;99.90
59893;DHT22;45758;51.052;3.740;2022-10-16T16:37:04;19.00;99.90
59893;DHT22;45758;51.052;3.740;2022-10-16T16:39:30;18.80;99.90
59893;DHT22;45758;51.052;3.740;2022-10-16T16:41:57;18.70;99.90
59893;DHT22;45758;51.052;3.740;2022-10-16T16:44:28;18.60;99.90
59893;DHT22;45758;51.052;3.740;2022-10-16T16:46:54;18.70;99.90
59893;DHT22;45758;51.052;3.740;2022-10-16T16:49:20;18.60;99.90
59893;DHT22;45758;51.052;3.740;2022-10-16T16:51:45;18.70;99.90
59893;DHT22;45758;51.052;3.740;2022-10-16T16:54:12;18.70;99.90
59893;DHT22;45758;51.052;3.740;2022-10-16T16:56:39;18.70;99.90
59893;DHT22;45758;51.052;3.740;2022-10-16T16:59:12;18.70;99.90
59893;DHT22;45758;51.052;3.740;2022-10-16T17:01:39;18.60;99.90
59893;DHT22;45758;51.052;3.740;2022-10-16T17:04:05;18.70;99.90
59893;DHT22;45758;51.052;3.740;2022-10-16T17:06:32;18.60;99.90
59893;DHT22;45758;51.052;3.740;2022-10-16T17:09:01;18.50;99.90
59893;DHT22;45758;51.052;3.740;2022-10-16T17:11:28;18.50;99.90
59893;DHT22;45758;51.052;3.740;2022-10-16T17:13:55;18.50;99.90
59893;DHT22;45758;51.052;3.740;2022-10-16T17:16:25;18.50;99.90